sensor_id;sensor_type;location;lat;lon;timestamp;temperature;humidity
51733;DHT22;39139;53.144;6.244;2023-09-19T00:00:46;13.90;99.90
51733;DHT22;39139;53.144;6.244;2023-09-19T00:03:15;13.90;99.90
51733;DHT22;39139;53.144;6.244;2023-09-19T00:05:41;13.90;99.90
51733;DHT22;39139;53.144;6.244;2023-09-19T00:08:09;14.00;99.90
51733;DHT22;39139;53.144;6.244;2023-09-19T00:10:35;14.00;99.90
51733;DHT22;39139;53.144;6.244;2023-09-19T00:13:04;14.00;99.90
51733;DHT22;39139;53.144;6.244;2023-09-19T00:15:38;14.00;99.90
51733;DHT22;39139;53.144;6.244;2023-09-19T00:18:05;14.00;99.90
51733;DHT22;39139;53.144;6.244;2023-09-19T00:20:32;14.00;99.90
51733;DHT22;39139;53.144;6.244;2023-09-19T00:23:00;14.00;99.90
51733;DHT22;39139;53.144;6.244;2023-09-19T00:25:33;14.00;99.90
51733;DHT22;39139;53.144;6.244;2023-09-19T00:28:01;14.00;99.90
51733;DHT22;39139;53.144;6.244;2023-09-19T00:30:26;14.00;99.90
51733;DHT22;39139;53.144;6.244;2023-09-19T00:32:52;14.00;99.90
51733;DHT22;39139;53.144;6.244;2023-09-19T00:35:18;13.90;99.90
51733;DHT22;39139;53.144;6.244;2023-09-19T00:37:50;14.00;99.90
51733;DHT22;39139;53.144;6.244;2023-09-19T00:40:16;13.90;99.90
51733;DHT22;39139;53.144;6.244;2023-09-19T00:42:44;14.00;99.90
51733;DHT22;39139;53.144;6.244;2023-09-19T00:45:11;13.90;99.90
51733;DHT22;39139;53.144;6.244;2023-09-19T00:47:48;13.90;99.90
51733;DHT22;39139;53.144;6.244;2023-09-19T00:50:20;13.90;99.90
51733;DHT22;39139;53.144;6.244;2023-09-19T00:52:48;13.90;99.90
51733;DHT22;39139;53.144;6.244;2023-09-19T00:55:16;13.90;99.90
51733;DHT22;39139;53.144;6.244;2023-09-19T00:57:42;13.80;99.90
51733;DHT22;39139;53.144;6.244;2023-09-19T01:00:11;13.80;99.90
51733;DHT22;39139;53.144;6.244;2023-09-19T01:02:42;13.80;99.90
51733;DHT22;39139;53.144;6.244;2023-09-19T01:05:11;13.80;99.90
51733;DHT22;39139;53.144;6.244;2023-09-19T01:07:38;13.80;99.90
51733;DHT22;39139;53.144;6.244;2023-09-19T01:10:08;13.70;99.90
51733;DHT22;39139;53.144;6.244;2023-09-19T01:27:05;13.60;99.90
51733;DHT22;39139;53.144;6.244;2023-09-19T01:31:51;13.50;99.90
51733;DHT22;39139;53.144;6.244;2023-09-19T01:34:19;13.50;99.90
51733;DHT22;39139;53.144;6.244;2023-09-19T01:36:46;13.50;99.90
51733;DHT22;39139;53.144;6.244;2023-09-19T01:39:13;13.50;99.90
51733;DHT22;39139;53.144;6.244;2023-09-19T01:41:58;13.50;99.90
51733;DHT22;39139;53.144;6.244;2023-09-19T01:44:51;13.50;99.90
51733;DHT22;39139;53.144;6.244;2023-09-19T01:47:37;13.50;99.90
51733;DHT22;39139;53.144;6.244;2023-09-19T01:50:32;13.00;99.90
51733;DHT22;39139;53.144;6.244;2023-09-19T01:53:05;13.40;99.90
51733;DHT22;39139;53.144;6.244;2023-09-19T01:55:39;13.40;99.90
51733;DHT22;39139;53.144;6.244;2023-09-19T02:00:58;13.40;99.90
51733;DHT22;39139;53.144;6.244;2023-09-19T02:03:26;13.40;99.90
51733;DHT22;39139;53.144;6.244;2023-09-19T02:05:53;13.30;99.90
51733;DHT22;39139;53.144;6.244;2023-09-19T02:08:20;13.30;99.90
51733;DHT22;39139;53.144;6.244;2023-09-19T02:10:49;13.30;99.90
51733;DHT22;39139;53.144;6.244;2023-09-19T02:13:18;13.20;99.90
51733;DHT22;39139;53.144;6.244;2023-09-19T02:15:45;13.30;99.90
51733;DHT22;39139;53.144;6.244;2023-09-19T02:18:12;13.20;99.90
51733;DHT22;39139;53.144;6.244;2023-09-19T02:20:38;13.20;99.90
51733;DHT22;39139;53.144;6.244;2023-09-19T02:23:04;13.20;99.90
51733;DHT22;39139;53.144;6.244;2023-09-19T02:25:30;13.20;99.90
51733;DHT22;39139;53.144;6.244;2023-09-19T02:27:57;13.20;99.90
51733;DHT22;39139;53.144;6.244;2023-09-19T02:30:24;13.20;99.90
51733;DHT22;39139;53.144;6.244;2023-09-19T02:32:51;13.20;99.90
51733;DHT22;39139;53.144;6.244;2023-09-19T02:35:17;13.20;99.90
51733;DHT22;39139;53.144;6.244;2023-09-19T02:37:45;13.20;99.90
51733;DHT22;39139;53.144;6.244;2023-09-19T02:40:11;13.20;99.90
51733;DHT22;39139;53.144;6.244;2023-09-19T02:42:53;13.30;99.90
51733;DHT22;39139;53.144;6.244;2023-09-19T02:45:20;13.20;99.90
51733;DHT22;39139;53.144;6.244;2023-09-19T02:47:46;13.30;99.90
51733;DHT22;39139;53.144;6.244;2023-09-19T02:50:13;13.30;99.90
51733;DHT22;39139;53.144;6.244;2023-09-19T02:52:46;13.30;99.90
51733;DHT22;39139;53.144;6.244;2023-09-19T02:55:17;13.30;99.90
51733;DHT22;39139;53.144;6.244;2023-09-19T02:57:49;13.40;99.90
51733;DHT22;39139;53.144;6.244;2023-09-19T03:00:16;13.40;99.90
51733;DHT22;39139;53.144;6.244;2023-09-19T03:02:42;13.40;99.90
51733;DHT22;39139;53.144;6.244;2023-09-19T03:05:09;13.40;99.90
51733;DHT22;39139;53.144;6.244;2023-09-19T03:07:36;13.40;99.90
51733;DHT22;39139;53.144;6.244;2023-09-19T03:10:05;13.40;99.90
51733;DHT22;39139;53.144;6.244;2023-09-19T03:12:31;13.40;99.90
51733;DHT22;39139;53.144;6.244;2023-09-19T03:14:57;13.40;99.90
51733;DHT22;39139;53.144;6.244;2023-09-19T03:17:23;13.30;99.90
51733;DHT22;39139;53.144;6.244;2023-09-19T03:19:48;13.30;99.90
51733;DHT22;39139;53.144;6.244;2023-09-19T03:22:14;13.30;99.90
51733;DHT22;39139;53.144;6.244;2023-09-19T03:24:41;13.30;99.90
51733;DHT22;39139;53.144;6.244;2023-09-19T03:27:09;13.30;99.90
51733;DHT22;39139;53.144;6.244;2023-09-19T03:29:35;13.30;99.90
51733;DHT22;39139;53.144;6.244;2023-09-19T03:32:01;13.30;99.90
51733;DHT22;39139;53.144;6.244;2023-09-19T03:34:27;13.20;99.90
51733;DHT22;39139;53.144;6.244;2023-09-19T03:36:52;13.20;99.90
51733;DHT22;39139;53.144;6.244;2023-09-19T03:39:18;13.20;99.90
51733;DHT22;39139;53.144;6.244;2023-09-19T03:41:43;13.20;99.90
51733;DHT22;39139;53.144;6.244;2023-09-19T03:44:10;13.20;99.90
51733;DHT22;39139;53.144;6.244;2023-09-19T03:46:36;13.20;99.90
51733;DHT22;39139;53.144;6.244;2023-09-19T03:49:02;13.20;99.90
51733;DHT22;39139;53.144;6.244;2023-09-19T03:51:28;13.20;99.90
51733;DHT22;39139;53.144;6.244;2023-09-19T03:53:54;13.10;99.90
51733;DHT22;39139;53.144;6.244;2023-09-19T03:56:19;13.10;99.90
51733;DHT22;39139;53.144;6.244;2023-09-19T03:58:45;13.00;99.90
51733;DHT22;39139;53.144;6.244;2023-09-19T04:01:10;13.00;99.90
51733;DHT22;39139;53.144;6.244;2023-09-19T04:03:36;13.00;99.90
51733;DHT22;39139;53.144;6.244;2023-09-19T04:06:13;13.00;99.90
51733;DHT22;39139;53.144;6.244;2023-09-19T04:08:39;12.90;99.90
51733;DHT22;39139;53.144;6.244;2023-09-19T04:11:04;12.90;99.90
51733;DHT22;39139;53.144;6.244;2023-09-19T04:13:30;12.90;99.90
51733;DHT22;39139;53.144;6.244;2023-09-19T04:15:56;12.90;99.90
51733;DHT22;39139;53.144;6.244;2023-09-19T04:18:22;12.80;99.90
51733;DHT22;39139;53.144;6.244;2023-09-19T04:20:49;12.80;99.90
51733;DHT22;39139;53.144;6.244;2023-09-19T04:23:15;12.80;99.90
51733;DHT22;39139;53.144;6.244;2023-09-19T04:25:42;12.80;99.90
51733;DHT22;39139;53.144;6.244;2023-09-19T04:28:08;12.70;99.90
51733;DHT22;39139;53.144;6.244;2023-09-19T04:30:35;12.80;99.90
51733;DHT22;39139;53.144;6.244;2023-09-19T04:33:01;12.80;99.90
51733;DHT22;39139;53.144;6.244;2023-09-19T04:35:27;12.80;99.90
51733;DHT22;39139;53.144;6.244;2023-09-19T04:37:54;12.80;99.90
51733;DHT22;39139;53.144;6.244;2023-09-19T04:40:20;12.90;99.90
51733;DHT22;39139;53.144;6.244;2023-09-19T04:42:53;12.80;99.90
51733;DHT22;39139;53.144;6.244;2023-09-19T04:45:22;12.80;99.90
51733;DHT22;39139;53.144;6.244;2023-09-19T04:47:48;13.00;99.90
51733;DHT22;39139;53.144;6.244;2023-09-19T04:50:14;12.80;99.90
51733;DHT22;39139;53.144;6.244;2023-09-19T04:52:44;12.90;99.90
51733;DHT22;39139;53.144;6.244;2023-09-19T04:55:14;12.90;99.90
51733;DHT22;39139;53.144;6.244;2023-09-19T04:57:46;12.90;99.90
51733;DHT22;39139;53.144;6.244;2023-09-19T05:00:14;12.80;99.90
51733;DHT22;39139;53.144;6.244;2023-09-19T05:02:40;12.90;99.90
51733;DHT22;39139;53.144;6.244;2023-09-19T05:05:08;12.90;99.90
51733;DHT22;39139;53.144;6.244;2023-09-19T05:07:34;13.50;99.90
51733;DHT22;39139;53.144;6.244;2023-09-19T05:10:00;12.90;99.90
51733;DHT22;39139;53.144;6.244;2023-09-19T05:12:28;12.80;99.90
51733;DHT22;39139;53.144;6.244;2023-09-19T05:14:55;12.90;99.90
51733;DHT22;39139;53.144;6.244;2023-09-19T05:17:20;12.90;99.90
51733;DHT22;39139;53.144;6.244;2023-09-19T05:19:46;12.90;99.90
51733;DHT22;39139;53.144;6.244;2023-09-19T05:22:12;12.90;99.90
51733;DHT22;39139;53.144;6.244;2023-09-19T05:24:38;12.90;99.90
51733;DHT22;39139;53.144;6.244;2023-09-19T05:27:04;13.00;99.90
51733;DHT22;39139;53.144;6.244;2023-09-19T05:29:32;12.90;99.90
51733;DHT22;39139;53.144;6.244;2023-09-19T05:31:59;13.00;99.90
51733;DHT22;39139;53.144;6.244;2023-09-19T05:34:24;13.10;99.90
51733;DHT22;39139;53.144;6.244;2023-09-19T05:36:55;13.10;99.90
51733;DHT22;39139;53.144;6.244;2023-09-19T05:39:21;13.10;99.90
51733;DHT22;39139;53.144;6.244;2023-09-19T05:41:48;13.10;99.90
51733;DHT22;39139;53.144;6.244;2023-09-19T05:44:13;13.20;99.90
51733;DHT22;39139;53.144;6.244;2023-09-19T05:46:40;13.20;99.90
51733;DHT22;39139;53.144;6.244;2023-09-19T05:49:05;13.30;99.90
51733;DHT22;39139;53.144;6.244;2023-09-19T05:51:31;13.30;99.90
51733;DHT22;39139;53.144;6.244;2023-09-19T05:53:57;13.40;99.90
51733;DHT22;39139;53.144;6.244;2023-09-19T05:56:23;13.40;99.90
51733;DHT22;39139;53.144;6.244;2023-09-19T05:58:49;13.50;99.90
51733;DHT22;39139;53.144;6.244;2023-09-19T06:01:17;13.50;99.90
51733;DHT22;39139;53.144;6.244;2023-09-19T06:03:43;13.60;99.90
51733;DHT22;39139;53.144;6.244;2023-09-19T06:06:09;13.60;99.90
51733;DHT22;39139;53.144;6.244;2023-09-19T06:08:35;13.60;99.90
51733;DHT22;39139;53.144;6.244;2023-09-19T06:11:00;13.70;99.90
51733;DHT22;39139;53.144;6.244;2023-09-19T06:13:29;13.70;99.90
51733;DHT22;39139;53.144;6.244;2023-09-19T06:15:55;13.80;99.90
51733;DHT22;39139;53.144;6.244;2023-09-19T06:18:24;13.80;99.90
51733;DHT22;39139;53.144;6.244;2023-09-19T06:20:52;13.90;99.90
51733;DHT22;39139;53.144;6.244;2023-09-19T06:23:18;13.90;99.90
51733;DHT22;39139;53.144;6.244;2023-09-19T06:25:45;13.90;99.90
51733;DHT22;39139;53.144;6.244;2023-09-19T06:28:11;14.00;99.90
51733;DHT22;39139;53.144;6.244;2023-09-19T06:30:42;14.00;99.90
51733;DHT22;39139;53.144;6.244;2023-09-19T06:33:08;14.00;99.90
51733;DHT22;39139;53.144;6.244;2023-09-19T06:35:34;14.00;99.90
51733;DHT22;39139;53.144;6.244;2023-09-19T06:38:03;14.10;99.90
51733;DHT22;39139;53.144;6.244;2023-09-19T06:40:29;14.00;99.90
51733;DHT22;39139;53.144;6.244;2023-09-19T06:42:56;14.10;99.90
51733;DHT22;39139;53.144;6.244;2023-09-19T06:45:22;14.10;99.90
51733;DHT22;39139;53.144;6.244;2023-09-19T06:47:52;14.20;99.90
51733;DHT22;39139;53.144;6.244;2023-09-19T06:50:19;14.20;99.90
51733;DHT22;39139;53.144;6.244;2023-09-19T06:52:48;14.30;99.90
51733;DHT22;39139;53.144;6.244;2023-09-19T06:55:19;14.40;99.90
51733;DHT22;39139;53.144;6.244;2023-09-19T06:57:46;14.40;99.90
51733;DHT22;39139;53.144;6.244;2023-09-19T07:00:12;14.50;99.90
51733;DHT22;39139;53.144;6.244;2023-09-19T07:03:03;14.50;99.90
51733;DHT22;39139;53.144;6.244;2023-09-19T07:05:30;14.60;99.90
51733;DHT22;39139;53.144;6.244;2023-09-19T07:08:00;14.60;99.90
51733;DHT22;39139;53.144;6.244;2023-09-19T07:10:26;14.60;99.90
51733;DHT22;39139;53.144;6.244;2023-09-19T07:12:59;14.70;99.90
51733;DHT22;39139;53.144;6.244;2023-09-19T07:15:25;14.70;99.90
51733;DHT22;39139;53.144;6.244;2023-09-19T07:17:55;14.80;99.90
51733;DHT22;39139;53.144;6.244;2023-09-19T07:20:22;14.80;99.90
51733;DHT22;39139;53.144;6.244;2023-09-19T07:22:51;14.90;99.90
51733;DHT22;39139;53.144;6.244;2023-09-19T07:25:18;14.90;99.90
51733;DHT22;39139;53.144;6.244;2023-09-19T07:27:44;14.90;99.90
51733;DHT22;39139;53.144;6.244;2023-09-19T07:30:10;14.90;99.90
51733;DHT22;39139;53.144;6.244;2023-09-19T07:32:37;14.90;99.90
51733;DHT22;39139;53.144;6.244;2023-09-19T07:35:04;14.90;99.90
51733;DHT22;39139;53.144;6.244;2023-09-19T07:37:33;14.90;99.90
51733;DHT22;39139;53.144;6.244;2023-09-19T07:40:03;15.00;99.90
51733;DHT22;39139;53.144;6.244;2023-09-19T07:42:33;15.00;99.90
51733;DHT22;39139;53.144;6.244;2023-09-19T07:45:01;15.00;99.90
51733;DHT22;39139;53.144;6.244;2023-09-19T07:47:27;15.00;99.90
51733;DHT22;39139;53.144;6.244;2023-09-19T07:49:53;15.00;99.90
51733;DHT22;39139;53.144;6.244;2023-09-19T07:52:19;15.00;99.90
51733;DHT22;39139;53.144;6.244;2023-09-19T07:54:47;15.00;99.90
51733;DHT22;39139;53.144;6.244;2023-09-19T07:57:15;15.10;99.90
51733;DHT22;39139;53.144;6.244;2023-09-19T07:59:41;15.10;99.90
51733;DHT22;39139;53.144;6.244;2023-09-19T08:02:08;15.10;99.90
51733;DHT22;39139;53.144;6.244;2023-09-19T08:04:42;15.10;99.90
51733;DHT22;39139;53.144;6.244;2023-09-19T08:07:07;15.10;99.90
51733;DHT22;39139;53.144;6.244;2023-09-19T08:09:34;15.10;99.90
51733;DHT22;39139;53.144;6.244;2023-09-19T08:12:00;15.10;99.90
51733;DHT22;39139;53.144;6.244;2023-09-19T08:14:29;15.10;99.90
51733;DHT22;39139;53.144;6.244;2023-09-19T08:16:58;15.10;99.90
51733;DHT22;39139;53.144;6.244;2023-09-19T08:19:24;15.10;99.90
51733;DHT22;39139;53.144;6.244;2023-09-19T08:21:57;15.10;99.90
51733;DHT22;39139;53.144;6.244;2023-09-19T08:24:25;15.20;99.90
51733;DHT22;39139;53.144;6.244;2023-09-19T08:26:54;15.30;99.90
51733;DHT22;39139;53.144;6.244;2023-09-19T08:29:21;15.50;99.90
51733;DHT22;39139;53.144;6.244;2023-09-19T08:31:46;15.50;99.90
51733;DHT22;39139;53.144;6.244;2023-09-19T08:34:15;15.50;99.90
51733;DHT22;39139;53.144;6.244;2023-09-19T08:36:41;15.70;99.90
51733;DHT22;39139;53.144;6.244;2023-09-19T08:39:09;15.70;99.90
51733;DHT22;39139;53.144;6.244;2023-09-19T08:41:34;15.80;99.90
51733;DHT22;39139;53.144;6.244;2023-09-19T08:44:00;15.90;99.90
51733;DHT22;39139;53.144;6.244;2023-09-19T08:46:30;16.00;99.90
51733;DHT22;39139;53.144;6.244;2023-09-19T08:49:13;16.10;99.90
51733;DHT22;39139;53.144;6.244;2023-09-19T08:51:44;16.20;99.90
51733;DHT22;39139;53.144;6.244;2023-09-19T08:54:24;16.30;99.90
51733;DHT22;39139;53.144;6.244;2023-09-19T08:56:54;16.40;99.90
51733;DHT22;39139;53.144;6.244;2023-09-19T08:59:23;16.50;99.90
51733;DHT22;39139;53.144;6.244;2023-09-19T09:01:50;16.60;99.90
51733;DHT22;39139;53.144;6.244;2023-09-19T09:04:19;16.70;99.90
51733;DHT22;39139;53.144;6.244;2023-09-19T09:06:46;16.70;99.90
51733;DHT22;39139;53.144;6.244;2023-09-19T09:09:15;16.70;99.90
51733;DHT22;39139;53.144;6.244;2023-09-19T09:11:40;16.80;99.90
51733;DHT22;39139;53.144;6.244;2023-09-19T09:14:06;16.70;99.90
51733;DHT22;39139;53.144;6.244;2023-09-19T09:16:33;16.80;99.90
51733;DHT22;39139;53.144;6.244;2023-09-19T09:18:58;16.80;99.90
51733;DHT22;39139;53.144;6.244;2023-09-19T09:21:25;16.90;99.90
51733;DHT22;39139;53.144;6.244;2023-09-19T09:23:51;16.90;99.90
51733;DHT22;39139;53.144;6.244;2023-09-19T09:29:04;16.90;99.90
51733;DHT22;39139;53.144;6.244;2023-09-19T09:31:29;16.90;99.90
51733;DHT22;39139;53.144;6.244;2023-09-19T09:33:56;16.80;99.90
51733;DHT22;39139;53.144;6.244;2023-09-19T09:36:39;16.90;99.90
51733;DHT22;39139;53.144;6.244;2023-09-19T09:39:07;17.00;99.90
51733;DHT22;39139;53.144;6.244;2023-09-19T09:41:44;17.00;99.90
51733;DHT22;39139;53.144;6.244;2023-09-19T09:44:16;17.00;99.90
51733;DHT22;39139;53.144;6.244;2023-09-19T09:46:44;17.00;99.90
51733;DHT22;39139;53.144;6.244;2023-09-19T09:49:27;17.60;99.90
51733;DHT22;39139;53.144;6.244;2023-09-19T09:52:03;16.80;99.90
51733;DHT22;39139;53.144;6.244;2023-09-19T09:54:59;16.80;99.90
51733;DHT22;39139;53.144;6.244;2023-09-19T09:57:27;16.90;99.90
51733;DHT22;39139;53.144;6.244;2023-09-19T09:59:53;16.80;99.90
51733;DHT22;39139;53.144;6.244;2023-09-19T10:02:28;16.70;99.90
51733;DHT22;39139;53.144;6.244;2023-09-19T10:04:58;16.80;99.90
51733;DHT22;39139;53.144;6.244;2023-09-19T10:07:40;16.90;99.90
51733;DHT22;39139;53.144;6.244;2023-09-19T10:10:08;17.10;99.90
51733;DHT22;39139;53.144;6.244;2023-09-19T10:12:55;17.20;99.90
51733;DHT22;39139;53.144;6.244;2023-09-19T10:15:31;17.20;99.90
51733;DHT22;39139;53.144;6.244;2023-09-19T10:17:58;17.30;99.90
51733;DHT22;39139;53.144;6.244;2023-09-19T10:20:26;17.50;99.90
51733;DHT22;39139;53.144;6.244;2023-09-19T10:22:56;17.70;99.90
51733;DHT22;39139;53.144;6.244;2023-09-19T10:25:27;18.00;99.90
51733;DHT22;39139;53.144;6.244;2023-09-19T10:27:55;18.30;99.90
51733;DHT22;39139;53.144;6.244;2023-09-19T10:30:23;18.50;99.90
51733;DHT22;39139;53.144;6.244;2023-09-19T10:33:10;18.50;99.90
51733;DHT22;39139;53.144;6.244;2023-09-19T10:35:44;18.40;99.90
51733;DHT22;39139;53.144;6.244;2023-09-19T10:38:11;18.40;99.90
51733;DHT22;39139;53.144;6.244;2023-09-19T10:40:38;18.20;99.90
51733;DHT22;39139;53.144;6.244;2023-09-19T10:43:15;18.00;99.90
51733;DHT22;39139;53.144;6.244;2023-09-19T10:45:44;17.80;99.90
51733;DHT22;39139;53.144;6.244;2023-09-19T10:48:10;17.70;99.90
51733;DHT22;39139;53.144;6.244;2023-09-19T10:53:12;17.50;99.90
51733;DHT22;39139;53.144;6.244;2023-09-19T10:55:39;17.40;99.90
51733;DHT22;39139;53.144;6.244;2023-09-19T10:58:06;17.30;99.90
51733;DHT22;39139;53.144;6.244;2023-09-19T11:00:54;17.20;99.90
51733;DHT22;39139;53.144;6.244;2023-09-19T11:03:22;17.10;99.90
51733;DHT22;39139;53.144;6.244;2023-09-19T11:06:09;17.10;99.90
51733;DHT22;39139;53.144;6.244;2023-09-19T11:14:29;17.10;99.90
51733;DHT22;39139;53.144;6.244;2023-09-19T11:30:32;17.40;99.90
51733;DHT22;39139;53.144;6.244;2023-09-19T11:33:21;17.50;99.90
51733;DHT22;39139;53.144;6.244;2023-09-19T11:44:38;17.80;99.90
51733;DHT22;39139;53.144;6.244;2023-09-19T11:46:52;17.80;99.90
51733;DHT22;39139;53.144;6.244;2023-09-19T11:49:18;17.70;99.90
51733;DHT22;39139;53.144;6.244;2023-09-19T11:51:51;17.60;99.90
51733;DHT22;39139;53.144;6.244;2023-09-19T11:54:19;17.60;99.90
51733;DHT22;39139;53.144;6.244;2023-09-19T11:56:51;17.50;99.90
51733;DHT22;39139;53.144;6.244;2023-09-19T11:59:23;17.50;99.90
51733;DHT22;39139;53.144;6.244;2023-09-19T12:01:54;17.40;99.90
51733;DHT22;39139;53.144;6.244;2023-09-19T12:04:42;17.40;99.90
51733;DHT22;39139;53.144;6.244;2023-09-19T12:07:12;17.40;99.90
51733;DHT22;39139;53.144;6.244;2023-09-19T12:09:46;17.40;99.90
51733;DHT22;39139;53.144;6.244;2023-09-19T12:12:26;17.40;99.90
51733;DHT22;39139;53.144;6.244;2023-09-19T12:15:01;17.30;99.90
51733;DHT22;39139;53.144;6.244;2023-09-19T12:17:39;17.30;99.90
51733;DHT22;39139;53.144;6.244;2023-09-19T12:20:07;17.30;99.90
51733;DHT22;39139;53.144;6.244;2023-09-19T12:22:43;17.20;99.90
51733;DHT22;39139;53.144;6.244;2023-09-19T12:25:10;17.00;99.90
51733;DHT22;39139;53.144;6.244;2023-09-19T12:27:47;16.90;99.90
51733;DHT22;39139;53.144;6.244;2023-09-19T12:30:15;16.90;99.90
51733;DHT22;39139;53.144;6.244;2023-09-19T12:32:43;16.90;99.90
51733;DHT22;39139;53.144;6.244;2023-09-19T12:35:10;16.90;99.90
51733;DHT22;39139;53.144;6.244;2023-09-19T12:37:37;17.00;99.90
51733;DHT22;39139;53.144;6.244;2023-09-19T12:40:10;17.00;99.90
51733;DHT22;39139;53.144;6.244;2023-09-19T12:42:48;17.10;99.90
51733;DHT22;39139;53.144;6.244;2023-09-19T12:45:15;17.20;99.90
51733;DHT22;39139;53.144;6.244;2023-09-19T12:51:08;17.20;99.90
51733;DHT22;39139;53.144;6.244;2023-09-19T12:56:06;17.30;99.90
51733;DHT22;39139;53.144;6.244;2023-09-19T12:58:35;17.30;99.90
51733;DHT22;39139;53.144;6.244;2023-09-19T13:01:16;17.20;99.90
51733;DHT22;39139;53.144;6.244;2023-09-19T13:03:42;17.20;99.90
51733;DHT22;39139;53.144;6.244;2023-09-19T13:06:08;17.20;99.90
51733;DHT22;39139;53.144;6.244;2023-09-19T13:08:37;17.20;99.90
51733;DHT22;39139;53.144;6.244;2023-09-19T13:13:36;17.20;99.90
51733;DHT22;39139;53.144;6.244;2023-09-19T13:16:03;17.10;99.90
51733;DHT22;39139;53.144;6.244;2023-09-19T13:18:42;17.00;99.90
51733;DHT22;39139;53.144;6.244;2023-09-19T13:21:11;17.00;99.90
51733;DHT22;39139;53.144;6.244;2023-09-19T13:23:53;16.90;99.90
51733;DHT22;39139;53.144;6.244;2023-09-19T13:26:28;16.90;99.90
51733;DHT22;39139;53.144;6.244;2023-09-19T13:28:56;16.90;99.90
51733;DHT22;39139;53.144;6.244;2023-09-19T13:31:22;16.90;99.90
51733;DHT22;39139;53.144;6.244;2023-09-19T13:33:49;17.00;99.90
51733;DHT22;39139;53.144;6.244;2023-09-19T13:36:16;17.10;99.90
51733;DHT22;39139;53.144;6.244;2023-09-19T13:38:44;17.10;99.90
51733;DHT22;39139;53.144;6.244;2023-09-19T13:41:10;17.20;99.90
51733;DHT22;39139;53.144;6.244;2023-09-19T13:43:37;17.20;99.90
51733;DHT22;39139;53.144;6.244;2023-09-19T13:46:02;17.30;99.90
51733;DHT22;39139;53.144;6.244;2023-09-19T13:48:28;17.40;99.90
51733;DHT22;39139;53.144;6.244;2023-09-19T13:50:55;17.40;99.90
51733;DHT22;39139;53.144;6.244;2023-09-19T13:53:21;17.50;99.90
51733;DHT22;39139;53.144;6.244;2023-09-19T13:55:47;17.60;99.90
51733;DHT22;39139;53.144;6.244;2023-09-19T13:58:14;17.60;99.90
51733;DHT22;39139;53.144;6.244;2023-09-19T14:00:40;17.60;99.90
51733;DHT22;39139;53.144;6.244;2023-09-19T14:03:06;17.50;99.90
51733;DHT22;39139;53.144;6.244;2023-09-19T14:05:32;17.50;99.90
51733;DHT22;39139;53.144;6.244;2023-09-19T14:07:58;17.50;99.90
51733;DHT22;39139;53.144;6.244;2023-09-19T14:10:25;17.80;99.90
51733;DHT22;39139;53.144;6.244;2023-09-19T14:12:55;17.50;99.90
51733;DHT22;39139;53.144;6.244;2023-09-19T14:15:22;17.50;99.90
51733;DHT22;39139;53.144;6.244;2023-09-19T14:17:55;17.50;99.90
51733;DHT22;39139;53.144;6.244;2023-09-19T14:20:21;17.50;99.90
51733;DHT22;39139;53.144;6.244;2023-09-19T14:22:48;17.50;99.90
51733;DHT22;39139;53.144;6.244;2023-09-19T14:25:13;17.50;99.90
51733;DHT22;39139;53.144;6.244;2023-09-19T14:27:39;17.40;99.90
51733;DHT22;39139;53.144;6.244;2023-09-19T14:30:06;17.40;99.90
51733;DHT22;39139;53.144;6.244;2023-09-19T14:32:32;17.40;99.90
51733;DHT22;39139;53.144;6.244;2023-09-19T14:34:57;17.30;99.90
51733;DHT22;39139;53.144;6.244;2023-09-19T14:37:23;17.30;99.90
51733;DHT22;39139;53.144;6.244;2023-09-19T14:39:49;17.30;99.90
51733;DHT22;39139;53.144;6.244;2023-09-19T14:42:14;17.30;99.90
51733;DHT22;39139;53.144;6.244;2023-09-19T14:44:43;17.30;99.90
51733;DHT22;39139;53.144;6.244;2023-09-19T14:47:09;17.20;99.90
51733;DHT22;39139;53.144;6.244;2023-09-19T14:49:35;17.20;99.90
51733;DHT22;39139;53.144;6.244;2023-09-19T14:52:03;17.30;99.90
51733;DHT22;39139;53.144;6.244;2023-09-19T14:54:30;17.20;99.90
51733;DHT22;39139;53.144;6.244;2023-09-19T14:56:56;17.20;99.90
51733;DHT22;39139;53.144;6.244;2023-09-19T14:59:31;17.20;99.90
51733;DHT22;39139;53.144;6.244;2023-09-19T15:01:57;17.20;99.90
51733;DHT22;39139;53.144;6.244;2023-09-19T15:04:24;17.20;99.90
51733;DHT22;39139;53.144;6.244;2023-09-19T15:06:50;17.20;99.90
51733;DHT22;39139;53.144;6.244;2023-09-19T15:09:21;17.20;99.90
51733;DHT22;39139;53.144;6.244;2023-09-19T15:11:54;17.20;99.90
51733;DHT22;39139;53.144;6.244;2023-09-19T15:14:20;17.20;99.90
51733;DHT22;39139;53.144;6.244;2023-09-19T15:16:47;17.20;99.90
51733;DHT22;39139;53.144;6.244;2023-09-19T15:19:13;17.20;99.90
51733;DHT22;39139;53.144;6.244;2023-09-19T15:21:39;17.10;99.90
51733;DHT22;39139;53.144;6.244;2023-09-19T15:24:06;17.00;99.90
51733;DHT22;39139;53.144;6.244;2023-09-19T15:26:35;17.00;99.90
51733;DHT22;39139;53.144;6.244;2023-09-19T15:29:07;16.80;99.90
51733;DHT22;39139;53.144;6.244;2023-09-19T15:31:33;16.70;99.90
51733;DHT22;39139;53.144;6.244;2023-09-19T15:33:59;16.60;99.90
51733;DHT22;39139;53.144;6.244;2023-09-19T15:36:24;16.70;99.90
51733;DHT22;39139;53.144;6.244;2023-09-19T15:41:19;16.50;99.90
51733;DHT22;39139;53.144;6.244;2023-09-19T15:43:46;16.50;99.90
51733;DHT22;39139;53.144;6.244;2023-09-19T15:46:11;16.60;99.90
51733;DHT22;39139;53.144;6.244;2023-09-19T15:48:39;16.50;99.90
51733;DHT22;39139;53.144;6.244;2023-09-19T15:51:05;16.50;99.90
51733;DHT22;39139;53.144;6.244;2023-09-19T15:53:45;16.50;99.90
51733;DHT22;39139;53.144;6.244;2023-09-19T15:56:11;16.50;99.90
51733;DHT22;39139;53.144;6.244;2023-09-19T15:58:41;16.40;99.90
51733;DHT22;39139;53.144;6.244;2023-09-19T16:01:07;16.40;99.90
51733;DHT22;39139;53.144;6.244;2023-09-19T16:03:35;16.40;99.90
51733;DHT22;39139;53.144;6.244;2023-09-19T16:06:07;16.40;99.90
51733;DHT22;39139;53.144;6.244;2023-09-19T16:08:33;16.40;99.90
51733;DHT22;39139;53.144;6.244;2023-09-19T16:11:00;16.40;99.90
51733;DHT22;39139;53.144;6.244;2023-09-19T16:13:25;16.40;99.90
51733;DHT22;39139;53.144;6.244;2023-09-19T16:15:54;16.40;99.90
51733;DHT22;39139;53.144;6.244;2023-09-19T16:18:19;16.30;99.90
51733;DHT22;39139;53.144;6.244;2023-09-19T16:20:45;16.30;99.90
51733;DHT22;39139;53.144;6.244;2023-09-19T16:23:12;16.30;99.90
51733;DHT22;39139;53.144;6.244;2023-09-19T16:25:37;16.20;99.90
51733;DHT22;39139;53.144;6.244;2023-09-19T16:28:03;16.20;99.90
51733;DHT22;39139;53.144;6.244;2023-09-19T16:30:32;16.10;99.90
51733;DHT22;39139;53.144;6.244;2023-09-19T16:32:59;16.10;99.90
51733;DHT22;39139;53.144;6.244;2023-09-19T16:35:25;16.10;99.90
51733;DHT22;39139;53.144;6.244;2023-09-19T16:37:51;16.10;99.90
51733;DHT22;39139;53.144;6.244;2023-09-19T16:40:17;16.00;99.90
51733;DHT22;39139;53.144;6.244;2023-09-19T16:42:42;16.00;99.90